Time;durP1;ratioP1;P1;durP2;ratioP2;P2;SDS_P1;SDS_P2;PMS_P1;PMS_P2;Temp;Humidity;BMP_temperature;BMP_pressure;BME280_temperature;BME280_humidity;BME280_pressure;Samples;Min_cycle;Max_cycle;Signal;HPM_P1;HPM_P2
2022/05/29 00:00:47;;;;;;;11.67;5.33;;;;;;;8.30;100.00;99359.41;4230440;28;20238;-68
2022/05/29 00:03:13;;;;;;;11.57;4.60;;;;;;;8.38;100.00;99354.97;4237213;28;20239;-67
2022/05/29 00:05:40;;;;;;;13.83;5.33;;;;;;;8.34;100.00;99356.28;4231016;28;20269;-66
2022/05/29 00:08:11;;;;;;;13.70;5.63;;;;;;;8.44;100.00;99367.63;4226126;28;20333;-68
2022/05/29 00:10:40;;;;;;;12.43;5.80;;;;;;;8.38;100.00;99357.63;4235080;28;20372;-67
2022/05/29 00:13:06;;;;;;;8.70;4.77;;;;;;;8.37;100.00;99358.59;4237290;28;20295;-67
2022/05/29 00:15:33;;;;;;;13.70;5.53;;;;;;;8.37;100.00;99363.91;4242813;28;20230;-67
2022/05/29 00:18:00;;;;;;;16.63;5.77;;;;;;;8.34;100.00;99361.59;4231310;28;20238;-68
2022/05/29 00:20:26;;;;;;;8.77;5.07;;;;;;;8.39;100.00;99361.94;4242646;28;20227;-68
2022/05/29 00:22:53;;;;;;;10.37;4.87;;;;;;;8.35;100.00;99360.56;4237364;28;23031;-68
2022/05/29 00:25:19;;;;;;;10.07;5.37;;;;;;;8.28;100.00;99367.50;4235088;28;20276;-67
2022/05/29 00:27:46;;;;;;;12.23;5.67;;;;;;;8.28;100.00;99359.53;4237286;28;21599;-68
2022/05/29 00:30:13;;;;;;;14.90;5.50;;;;;;;8.28;100.00;99364.03;4230927;28;23840;-68
2022/05/29 00:32:40;;;;;;;16.67;5.23;;;;;;;8.35;100.00;99365.88;4242587;28;21568;-67
2022/05/29 00:35:07;;;;;;;12.53;4.83;;;;;;;8.31;100.00;99363.69;4234520;28;20313;-68
2022/05/29 00:37:38;;;;;;;11.60;5.60;;;;;;;8.32;100.00;99370.69;4247844;28;20227;-68
2022/05/29 00:40:22;;;;;;;8.83;4.37;;;;;;;8.37;100.00;99366.56;4234294;28;20235;-67
2022/05/29 00:42:49;;;;;;;13.73;4.70;;;;;;;8.45;100.00;99369.31;4237747;28;20268;-69
2022/05/29 00:45:19;;;;;;;11.37;4.60;;;;;;;8.41;100.00;99375.91;4239851;28;20226;-67
2022/05/29 00:47:46;;;;;;;16.03;4.30;;;;;;;8.43;100.00;99368.63;4240634;28;22316;-67
2022/05/29 00:50:12;;;;;;;11.40;3.80;;;;;;;8.45;100.00;99373.75;4235811;28;20233;-67
2022/05/29 00:52:39;;;;;;;10.17;3.80;;;;;;;8.42;100.00;99374.06;4234445;28;20238;-68
2022/05/29 00:55:11;;;;;;;8.40;3.70;;;;;;;8.42;100.00;99376.72;4236105;28;21837;-67
2022/05/29 00:57:42;;;;;;;12.17;3.63;;;;;;;8.43;100.00;99371.28;4237387;28;20239;-67
2022/05/29 01:00:15;;;;;;;11.10;3.53;;;;;;;8.52;100.00;99376.59;4232927;28;20233;-66
2022/05/29 01:02:43;;;;;;;9.10;3.23;;;;;;;8.57;100.00;99366.34;4242586;28;20242;-67
2022/05/29 01:05:13;;;;;;;10.40;3.57;;;;;;;8.47;100.00;99366.47;4232902;28;21616;-67
2022/05/29 01:07:43;;;;;;;7.33;3.93;;;;;;;8.40;100.00;99358.31;4226682;28;20702;-66
2022/05/29 01:10:10;;;;;;;8.07;3.40;;;;;;;8.49;100.00;99366.31;4230963;28;20241;-66
2022/05/29 01:12:53;;;;;;;9.73;3.27;;;;;;;8.51;100.00;99367.81;4247654;28;20234;-66
2022/05/29 01:15:47;;;;;;;8.07;3.40;;;;;;;8.50;100.00;99367.97;4209952;28;20268;-67
2022/05/29 01:18:33;;;;;;;8.53;3.50;;;;;;;8.45;100.00;99364.00;4234949;28;20234;-66
2022/05/29 01:21:34;;;;;;;12.67;3.83;;;;;;;8.38;100.00;99357.63;4229378;28;20291;-67
2022/05/29 01:24:23;;;;;;;9.30;3.47;;;;;;;8.40;100.00;99358.31;4246226;28;21369;-66
2022/05/29 01:27:12;;;;;;;8.00;3.03;;;;;;;8.36;100.00;99366.75;4242997;28;20235;-67
2022/05/29 01:30:02;;;;;;;5.77;3.10;;;;;;;8.33;100.00;99357.25;4227903;28;20231;-66
2022/05/29 01:32:52;;;;;;;7.33;3.23;;;;;;;8.31;100.00;99363.69;4231243;28;21073;-66
2022/05/29 01:35:23;;;;;;;5.70;3.10;;;;;;;8.37;100.00;99371.03;4260117;28;20226;-68
2022/05/29 01:37:56;;;;;;;7.97;2.83;;;;;;;8.41;100.00;99375.06;4235371;28;20344;-66
2022/05/29 01:40:33;;;;;;;8.83;2.90;;;;;;;8.47;100.00;99371.78;4235370;28;20293;-66
2022/05/29 01:43:11;;;;;;;11.67;3.00;;;;;;;8.41;100.00;99370.59;4246896;28;20930;-66
2022/05/29 01:45:56;;;;;;;5.50;2.80;;;;;;;8.38;100.00;99362.94;4232926;28;20660;-67
2022/05/29 01:48:49;;;;;;;11.73;2.93;;;;;;;8.36;100.00;99366.75;4226984;28;20242;-65
2022/05/29 01:51:18;;;;;;;5.37;2.87;;;;;;;8.37;100.00;99363.91;4225175;28;23460;-65
2022/05/29 01:54:15;;;;;;;5.77;2.93;;;;;;;8.39;100.00;99364.59;4232977;28;22256;-67
2022/05/29 01:56:47;;;;;;;8.90;2.97;;;;;;;8.41;100.00;99370.59;4246582;28;20332;-64
2022/05/29 01:59:21;;;;;;;8.17;3.33;;;;;;;8.33;100.00;99361.72;4222800;28;20244;-65
2022/05/29 02:01:52;;;;;;;14.30;3.13;;;;;;;8.27;100.00;99360.56;4225488;28;20265;-66
2022/05/29 02:04:22;;;;;;;10.17;3.67;;;;;;;8.30;100.00;99351.44;4238480;28;22370;-66
2022/05/29 02:09:48;;;;;;;9.60;3.00;;;;;;;8.44;100.00;99364.16;4231468;28;22338;-67
2022/05/29 02:12:18;;;;;;;6.60;2.83;;;;;;;8.36;100.00;99362.25;4227019;28;20246;-66
2022/05/29 02:15:02;;;;;;;8.70;3.00;;;;;;;8.37;100.00;99363.91;4227545;28;20285;-65
2022/05/29 02:17:44;;;;;;;13.17;2.80;;;;;;;8.39;100.00;99369.06;4240940;28;20578;-65
2022/05/29 02:20:24;;;;;;;9.83;3.03;;;;;;;8.31;100.00;99367.22;4224189;28;20236;-66
2022/05/29 02:22:55;;;;;;;8.40;3.20;;;;;;;8.28;100.00;99362.19;4233289;28;21731;-66
2022/05/29 02:25:24;;;;;;;9.57;2.80;;;;;;;8.30;100.00;99367.34;4232991;28;20242;-65
2022/05/29 02:28:29;;;;;;;8.93;3.00;;;;;;;8.41;100.00;99367.94;4235779;28;20451;-68
2022/05/29 02:31:19;;;;;;;7.53;3.80;;;;;;;8.38;100.00;99368.25;4236519;28;20384;-65
2022/05/29 02:33:59;;;;;;;12.80;3.20;;;;;;;8.34;100.00;99364.22;4236502;28;20248;-66
2022/05/29 02:36:39;;;;;;;13.40;3.60;;;;;;;8.33;100.00;99370.50;4225698;28;20242;-67
2022/05/29 02:39:18;;;;;;;8.23;3.10;;;;;;;8.34;100.00;99366.88;4241405;28;20446;-66
2022/05/29 02:41:49;;;;;;;7.83;3.23;;;;;;;8.33;100.00;99362.56;4238363;28;20237;-66
2022/05/29 02:44:26;;;;;;;8.53;3.00;;;;;;;8.31;100.00;99367.22;4237691;28;20656;-65
2022/05/29 02:47:00;;;;;;;11.77;3.60;;;;;;;8.27;100.00;99357.06;4238669;28;20301;-65
2022/05/29 02:49:38;;;;;;;15.07;3.40;;;;;;;8.28;100.00;99364.84;4229100;28;20262;-66
2022/05/29 02:52:10;;;;;;;11.47;3.50;;;;;;;8.36;100.00;99362.25;4236922;28;20239;-66
2022/05/29 02:54:36;;;;;;;8.47;3.17;;;;;;;8.38;100.00;99360.28;4227694;28;20741;-66
2022/05/29 02:57:03;;;;;;;10.43;3.90;;;;;;;8.33;100.00;99367.03;4241505;28;21151;-64
2022/05/29 02:59:37;;;;;;;6.43;3.07;;;;;;;8.47;100.00;99368.31;4250544;28;21543;-66
2022/05/29 03:02:45;;;;;;;8.27;3.33;;;;;;;8.64;100.00;99373.53;4229893;28;21321;-65
2022/05/29 03:05:37;;;;;;;13.53;4.13;;;;;;;8.57;100.00;99376.97;4231151;28;20291;-65
2022/05/29 03:08:34;;;;;;;7.70;3.30;;;;;;;8.55;100.00;99377.13;4245348;28;20499;-66
2022/05/29 03:11:09;;;;;;;11.40;3.90;;;;;;;8.61;100.00;99383.63;4256046;28;22234;-63
2022/05/29 03:14:01;;;;;;;9.33;3.90;;;;;;;8.61;100.00;99388.91;4238870;28;20226;-65
2022/05/29 03:16:42;;;;;;;8.80;3.90;;;;;;;8.59;100.00;99391.75;4257356;28;20231;-66
2022/05/29 03:19:37;;;;;;;10.67;3.93;;;;;;;8.66;100.00;99389.28;4242345;28;20937;-67
2022/05/29 03:22:11;;;;;;;11.50;3.87;;;;;;;8.61;100.00;99399.53;4233378;28;20227;-65
2022/05/29 03:24:44;;;;;;;11.40;3.73;;;;;;;8.62;100.00;99396.72;4258090;28;20260;-65
2022/05/29 03:27:23;;;;;;;10.87;3.50;;;;;;;8.65;100.00;99392.94;4254150;28;22074;-66
2022/05/29 03:29:59;;;;;;;12.53;3.33;;;;;;;8.80;100.00;99396.66;4241365;28;21531;-65
2022/05/29 03:32:26;;;;;;;6.60;3.20;;;;;;;8.73;100.00;99398.25;4239097;28;20318;-66
2022/05/29 03:34:53;;;;;;;10.63;3.70;;;;;;;8.74;100.00;99401.75;4249420;28;22045;-66
2022/05/29 03:37:20;;;;;;;12.30;3.30;;;;;;;8.86;100.00;99392.53;4237123;28;22347;-66
2022/05/29 03:39:47;;;;;;;10.27;3.50;;;;;;;8.80;100.00;99399.31;4256963;28;20839;-65
2022/05/29 03:42:13;;;;;;;12.53;3.70;;;;;;;8.81;100.00;99398.31;4254693;28;20246;-65
2022/05/29 03:44:40;;;;;;;10.67;3.67;;;;;;;8.78;100.00;99392.47;4248370;28;21776;-65
2022/05/29 03:47:07;;;;;;;8.50;3.27;;;;;;;8.84;100.00;99387.38;4238800;28;20231;-65
2022/05/29 03:49:34;;;;;;;10.70;3.43;;;;;;;8.89;100.00;99394.84;4240778;28;21347;-66
2022/05/29 03:52:01;;;;;;;10.37;3.83;;;;;;;9.11;100.00;99392.59;4237870;28;20226;-64
2022/05/29 03:54:29;;;;;;;9.47;3.13;;;;;;;9.01;100.00;99393.59;4240379;28;21321;-64
2022/05/29 03:56:55;;;;;;;9.97;3.10;;;;;;;9.01;100.00;99393.59;4253999;28;20238;-65
2022/05/29 03:59:22;;;;;;;9.53;3.27;;;;;;;9.05;100.00;99396.75;4232695;28;20377;-64
2022/05/29 04:01:49;;;;;;;8.00;2.53;;;;;;;9.04;100.00;99403.88;4238181;28;21303;-66
2022/05/29 04:04:16;;;;;;;12.40;3.00;;;;;;;9.21;100.00;99406.59;4236766;28;21353;-64
2022/05/29 04:06:42;;;;;;;9.73;3.00;;;;;;;9.19;100.00;99408.56;4246251;28;20242;-65
2022/05/29 04:12:07;;;;;;;12.73;3.23;;;;;;;9.24;100.00;99409.72;4258001;28;20227;-63
2022/05/29 04:14:40;;;;;;;9.13;3.13;;;;;;;9.23;100.00;99418.69;4261046;28;20238;-65
2022/05/29 04:17:14;;;;;;;9.87;3.10;;;;;;;9.21;100.00;99415.38;4240518;28;22969;-65
2022/05/29 04:19:41;;;;;;;7.57;2.97;;;;;;;9.05;100.00;99425.94;4247845;28;20284;-64
2022/05/29 04:22:10;;;;;;;5.53;2.73;;;;;;;9.04;100.00;99418.97;4250814;28;21736;-66
2022/05/29 04:24:36;;;;;;;8.90;3.33;;;;;;;8.99;100.00;99421.25;4258002;28;20266;-65
2022/05/29 04:27:03;;;;;;;10.07;2.93;;;;;;;8.97;100.00;99420.59;4248235;28;20308;-66
2022/05/29 04:29:32;;;;;;;15.70;3.23;;;;;;;8.96;100.00;99427.72;4253585;28;20681;-65
2022/05/29 04:34:44;;;;;;;11.00;2.87;;;;;;;9.08;100.00;99430.91;4240217;28;20327;-64
2022/05/29 04:37:11;;;;;;;6.73;2.80;;;;;;;9.09;100.00;99430.75;4248268;28;20234;-63
2022/05/29 04:39:38;;;;;;;7.23;2.97;;;;;;;8.99;100.00;99437.16;4254067;28;22604;-64
2022/05/29 04:42:05;;;;;;;11.63;3.50;;;;;;;8.98;100.00;99435.53;4248992;28;20261;-64
2022/05/29 04:44:33;;;;;;;13.70;4.13;;;;;;;9.05;100.00;99436.53;4242140;28;20241;-64
2022/05/29 04:47:00;;;;;;;12.03;3.53;;;;;;;8.99;100.00;99432.72;4251564;28;20386;-64
2022/05/29 04:49:27;;;;;;;9.43;3.30;;;;;;;8.99;100.00;99437.16;4253158;28;20234;-64
2022/05/29 04:51:54;;;;;;;6.87;3.20;;;;;;;9.02;100.00;99442.19;4236006;28;21243;-65
2022/05/29 04:54:21;;;;;;;15.53;3.90;;;;;;;9.03;100.00;99438.53;4240622;28;21257;-66
2022/05/29 04:56:49;;;;;;;8.37;2.73;;;;;;;9.07;100.00;99434.56;4231567;28;22054;-65
2022/05/29 04:59:15;;;;;;;11.77;3.60;;;;;;;9.12;100.00;99432.25;4232949;28;20330;-63
2022/05/29 05:01:42;;;;;;;12.37;3.37;;;;;;;9.24;100.00;99438.09;4228821;28;20380;-66
2022/05/29 05:04:09;;;;;;;11.33;3.70;;;;;;;9.18;100.00;99439.59;4251226;28;20233;-65
2022/05/29 05:06:36;;;;;;;13.20;3.63;;;;;;;9.28;100.00;99437.63;4244027;28;22657;-65
2022/05/29 05:09:02;;;;;;;9.60;3.53;;;;;;;9.50;100.00;99436.19;4243584;28;20838;-64
2022/05/29 05:11:29;;;;;;;8.57;3.40;;;;;;;9.57;100.00;99441.66;4243144;28;20234;-66
2022/05/29 05:13:55;;;;;;;13.53;3.57;;;;;;;9.65;100.00;99436.38;4242322;28;21248;-66
2022/05/29 05:16:22;;;;;;;8.40;3.13;;;;;;;9.75;100.00;99435.41;4242104;28;23902;-64
2022/05/29 05:18:49;;;;;;;16.03;3.60;;;;;;;9.86;100.00;99437.75;4243839;28;20238;-64
2022/05/29 05:21:16;;;;;;;8.73;3.27;;;;;;;9.97;100.00;99436.56;4256228;28;21294;-65
2022/05/29 05:23:44;;;;;;;11.20;4.03;;;;;;;9.93;100.00;99441.41;4247000;28;20326;-65
2022/05/29 05:26:12;;;;;;;11.97;3.53;;;;;;;10.00;100.00;99445.06;4244928;28;20231;-64
2022/05/29 05:28:39;;;;;;;15.87;3.70;;;;;;;10.09;100.00;99445.88;4241345;28;20477;-64
2022/05/29 05:31:06;;;;;;;13.83;3.80;;;;;;;10.00;100.00;99453.03;4262536;28;21279;-62
2022/05/29 05:33:32;;;;;;;9.43;3.60;;;;;;;9.94;100.00;99448.38;4236638;28;20259;-62
2022/05/29 05:35:59;;;;;;;10.57;4.63;;;;;;;9.97;100.00;99449.84;4241031;28;21606;-63
2022/05/29 05:38:25;;;;;;;10.27;4.57;;;;;;;10.05;100.00;99453.34;4242216;28;20233;-65
2022/05/29 05:40:52;;;;;;;13.70;4.97;;;;;;;9.96;100.00;99453.53;4253409;28;20234;-66
2022/05/29 05:43:19;;;;;;;14.20;4.87;;;;;;;9.96;100.00;99445.56;4244067;28;20656;-62
2022/05/29 05:45:47;;;;;;;16.83;5.80;;;;;;;9.88;100.00;99454.31;4244005;28;20368;-69
2022/05/29 05:48:15;;;;;;;11.83;5.87;;;;;;;10.01;99.79;99452.03;4246362;28;20272;-61
2022/05/29 05:50:42;;;;;;;16.37;5.50;;;;;;;10.05;99.42;99450.69;4249541;28;25468;-69
2022/05/29 05:53:09;;;;;;;10.77;5.20;;;;;;;10.08;98.33;99461.00;4243124;28;20238;-61
2022/05/29 05:55:36;;;;;;;15.90;5.57;;;;;;;10.08;98.93;99465.50;4243199;28;20231;-60
2022/05/29 05:58:03;;;;;;;15.60;5.60;;;;;;;10.19;99.09;99465.16;4249509;28;20424;-62
2022/05/29 06:00:30;;;;;;;13.03;5.30;;;;;;;10.20;96.88;99466.00;4242783;28;20238;-62
2022/05/29 06:02:58;;;;;;;14.43;6.23;;;;;;;10.20;97.82;99477.44;4240856;28;20358;-63
2022/05/29 06:05:26;;;;;;;22.87;6.53;;;;;;;10.30;95.92;99475.50;4249132;28;20233;-65
2022/05/29 06:07:53;;;;;;;13.00;6.27;;;;;;;10.38;96.32;99472.00;4249139;28;20324;-62
2022/05/29 06:10:20;;;;;;;15.53;6.13;;;;;;;10.42;96.55;99478.66;4239761;28;21765;-60
2022/05/29 06:12:48;;;;;;;12.63;5.60;;;;;;;10.53;94.93;99475.63;4251934;28;20241;-63
2022/05/29 06:15:14;;;;;;;14.03;5.77;;;;;;;10.67;93.69;99470.63;4240716;28;20250;-61
2022/05/29 06:17:41;;;;;;;16.63;5.57;;;;;;;10.77;91.54;99476.59;4253341;28;20231;-61
2022/05/29 06:20:09;;;;;;;15.37;4.73;;;;;;;10.92;91.42;99485.53;4239169;28;20235;-64
2022/05/29 06:22:36;;;;;;;14.83;4.83;;;;;;;10.92;91.83;99480.22;4249054;28;20553;-60
2022/05/29 06:25:04;;;;;;;15.23;4.10;;;;;;;10.89;92.12;99491.19;4247663;28;20269;-62
2022/05/29 06:27:34;;;;;;;12.17;4.40;;;;;;;10.78;90.96;99488.91;4233023;28;20361;-60
2022/05/29 06:30:01;;;;;;;10.03;4.13;;;;;;;10.94;90.42;99483.53;4271059;28;20239;-62
2022/05/29 06:32:28;;;;;;;14.97;4.33;;;;;;;11.09;89.90;99494.28;4239383;28;20325;-62
2022/05/29 06:34:54;;;;;;;11.80;4.70;;;;;;;11.17;90.29;99504.09;4258222;28;20508;-61
2022/05/29 06:37:21;;;;;;;11.57;4.53;;;;;;;11.12;87.40;99485.13;4259916;28;20230;-60
2022/05/29 06:39:47;;;;;;;15.90;4.50;;;;;;;11.16;87.86;99507.75;4253404;28;21313;-62
2022/05/29 06:42:15;;;;;;;11.00;4.60;;;;;;;11.15;88.20;99509.59;4229987;28;20235;-60
2022/05/29 06:44:41;;;;;;;11.60;4.13;;;;;;;11.20;86.31;99509.91;4246386;28;20289;-60
2022/05/29 06:47:09;;;;;;;11.07;4.53;;;;;;;10.97;89.15;99509.81;4262530;28;20251;-61
2022/05/29 06:49:36;;;;;;;11.77;4.40;;;;;;;11.10;89.06;99511.13;4260816;28;20271;-61
2022/05/29 06:52:10;;;;;;;20.30;4.10;;;;;;;11.32;88.93;99507.69;4237171;28;20227;-60
2022/05/29 06:54:37;;;;;;;11.47;3.87;;;;;;;11.45;86.63;99507.16;4247057;28;21827;-61
2022/05/29 06:57:06;;;;;;;16.73;3.97;;;;;;;11.72;86.23;99508.50;4252501;28;20281;-63
2022/05/29 07:06:59;;;;;;;10.90;3.97;;;;;;;12.43;83.20;99511.03;4265122;28;20565;-60
2022/05/29 07:07:58;;;;;;;14.97;3.30;;;;;;;12.44;80.30;99518.03;4238116;28;22839;-63
2022/05/29 07:10:26;;;;;;;12.93;3.47;;;;;;;12.22;81.33;99519.69;4248803;28;20237;-62
2022/05/29 07:12:53;;;;;;;11.10;3.07;;;;;;;12.42;80.22;99520.06;4245321;28;20238;-61
2022/05/29 07:15:20;;;;;;;9.23;2.97;;;;;;;12.76;78.36;99527.59;4243098;28;20675;-63
2022/05/29 07:17:47;;;;;;;12.43;3.10;;;;;;;12.57;77.54;99528.09;4275252;28;20226;-62
2022/05/29 07:20:15;;;;;;;10.67;2.93;;;;;;;12.50;78.55;99535.16;4239952;28;21220;-62
2022/05/29 07:22:43;;;;;;;12.43;3.43;;;;;;;12.42;79.37;99530.72;4256455;28;20241;-60
2022/05/29 07:25:11;;;;;;;8.43;2.70;;;;;;;12.66;80.33;99538.53;4222250;28;20242;-62
2022/05/29 07:27:38;;;;;;;10.97;2.80;;;;;;;12.74;78.59;99544.81;4237991;28;20293;-60
2022/05/29 07:30:06;;;;;;;12.97;3.40;;;;;;;12.68;78.54;99541.03;4230230;28;22801;-61
2022/05/29 07:32:33;;;;;;;10.93;3.40;;;;;;;12.86;78.45;99543.38;4233871;28;21870;-62
2022/05/29 07:34:59;;;;;;;12.27;3.30;;;;;;;12.74;78.83;99547.50;4246994;28;22202;-63
2022/05/29 07:37:26;;;;;;;8.97;3.10;;;;;;;12.59;79.13;99550.09;4256577;28;20308;-61
2022/05/29 07:39:53;;;;;;;9.80;3.20;;;;;;;12.53;80.41;99549.00;4247430;28;20256;-63
2022/05/29 07:45:07;;;;;;;9.87;3.40;;;;;;;12.94;78.65;99553.13;4247944;28;20290;-60
2022/05/29 07:47:36;;;;;;;9.93;3.27;;;;;;;13.00;78.22;99550.56;4236007;28;20235;-60
2022/05/29 07:50:05;;;;;;;11.57;3.37;;;;;;;13.28;76.35;99553.47;4233701;28;21696;-60
2022/05/29 07:52:35;;;;;;;10.10;3.20;;;;;;;13.91;73.04;99564.56;4256336;28;20320;-59
2022/05/29 07:55:02;;;;;;;13.73;3.60;;;;;;;14.09;72.31;99555.25;4237138;28;20230;-62
2022/05/29 07:57:29;;;;;;;9.33;3.33;;;;;;;14.36;71.84;99561.72;4245598;28;20234;-65
2022/05/29 07:59:55;;;;;;;14.03;3.23;;;;;;;14.63;70.40;99573.53;4265429;28;20639;-64
2022/05/29 08:02:22;;;;;;;9.80;3.60;;;;;;;14.91;70.01;99576.25;4253826;28;20883;-61
2022/05/29 08:04:48;;;;;;;10.80;3.50;;;;;;;15.13;69.46;99569.00;4251281;28;22113;-65
2022/05/29 08:07:17;;;;;;;12.37;2.90;;;;;;;15.43;68.84;99573.28;4245165;28;20284;-60
2022/05/29 08:09:44;;;;;;;11.13;2.90;;;;;;;15.84;63.78;99581.34;4255879;28;20524;-61
2022/05/29 08:12:10;;;;;;;10.77;2.60;;;;;;;16.32;61.34;99577.78;4257730;28;20985;-61
2022/05/29 08:14:37;;;;;;;11.00;2.53;;;;;;;15.75;60.45;99582.56;4244691;28;20242;-63
2022/05/29 08:17:03;;;;;;;11.87;2.20;;;;;;;15.12;64.07;99583.41;4237522;28;20240;-61
2022/05/29 08:19:33;;;;;;;10.73;2.30;;;;;;;15.01;64.43;99578.59;4241415;28;20220;-61
2022/05/29 08:22:00;;;;;;;9.70;1.97;;;;;;;14.93;64.00;99578.72;4242627;28;20224;-63
2022/05/29 08:33:12;;;;;;;8.57;2.00;;;;;;;14.55;64.40;99581.72;4244763;28;20238;-64
2022/05/29 08:35:41;;;;;;;5.63;2.23;;;;;;;14.42;65.80;99577.03;4257076;28;20269;-63
2022/05/29 08:38:10;;;;;;;8.37;2.93;;;;;;;14.73;64.70;99573.22;4234978;28;20272;-62
2022/05/29 08:41:07;;;;;;;5.23;2.10;;;;;;;15.08;65.33;99576.78;4249989;28;20772;-62
2022/05/29 08:43:45;;;;;;;9.77;2.17;;;;;;;15.73;62.35;99581.91;4269483;28;20257;-63
2022/05/29 08:46:18;;;;;;;11.20;2.23;;;;;;;16.14;60.21;99581.06;4246521;28;20236;-62
2022/05/29 08:48:46;;;;;;;10.23;2.50;;;;;;;15.67;62.12;99582.72;4258289;28;21769;-64
2022/05/29 08:51:37;;;;;;;12.83;2.40;;;;;;;15.09;61.29;99581.13;4292536;28;20775;-62
2022/05/29 08:54:13;;;;;;;8.27;2.20;;;;;;;14.53;63.01;99576.50;4271422;28;20291;-60
2022/05/29 08:57:18;;;;;;;8.37;2.10;;;;;;;14.48;63.47;99570.91;4249526;28;20224;-61
2022/05/29 08:59:45;;;;;;;7.33;2.10;;;;;;;15.15;60.18;99591.06;4242615;28;20371;-61
2022/05/29 09:02:21;;;;;;;6.70;1.73;;;;;;;15.17;61.02;99591.69;4244729;28;20241;-60
2022/05/29 09:05:09;;;;;;;8.20;2.00;;;;;;;15.19;60.57;99589.66;4254473;28;20329;-63
2022/05/29 09:07:38;;;;;;;12.80;2.47;;;;;;;15.53;61.65;99585.31;4259756;28;20243;-59
2022/05/29 09:10:12;;;;;;;6.27;2.00;;;;;;;15.29;61.37;99596.50;4233937;28;20323;-60
2022/05/29 09:12:53;;;;;;;11.63;2.10;;;;;;;15.23;59.92;99595.44;4252934;28;20227;-61
2022/05/29 09:15:33;;;;;;;7.40;2.33;;;;;;;15.29;60.78;99588.44;4255969;28;21576;-59
2022/05/29 09:18:03;;;;;;;8.90;2.10;;;;;;;15.20;62.72;99601.19;4236672;28;20757;-59
2022/05/29 09:20:34;;;;;;;7.70;2.10;;;;;;;14.79;61.25;99588.50;4237279;28;21806;-61
2022/05/29 09:23:02;;;;;;;9.50;2.40;;;;;;;14.99;60.92;99592.19;4251689;28;20866;-61
2022/05/29 09:25:42;;;;;;;14.10;2.50;;;;;;;14.72;62.34;99590.31;4252142;28;20257;-62
2022/05/29 09:28:17;;;;;;;9.23;2.47;;;;;;;14.61;64.51;99580.09;4223776;28;21300;-62
2022/05/29 09:30:44;;;;;;;9.70;2.33;;;;;;;14.49;64.79;99587.78;4241254;28;21206;-61
2022/05/29 09:33:19;;;;;;;8.77;1.90;;;;;;;14.46;60.40;99582.81;4246382;28;20348;-59
2022/05/29 09:36:24;;;;;;;6.43;1.87;;;;;;;14.42;60.01;99586.91;4246208;28;20233;-61
2022/05/29 09:38:58;;;;;;;9.87;2.47;;;;;;;14.23;61.71;99586.50;4247956;28;21272;-63
2022/05/29 09:41:29;;;;;;;6.27;2.10;;;;;;;14.61;60.98;99578.28;4235272;28;20264;-62
2022/05/29 09:44:04;;;;;;;6.77;2.00;;;;;;;14.93;58.39;99579.56;4239556;28;20239;-61
2022/05/29 09:46:34;;;;;;;12.27;2.47;;;;;;;14.97;58.22;99588.03;4258305;28;20225;-61
2022/05/29 09:51:56;;;;;;;6.87;1.97;;;;;;;14.86;60.24;99588.56;4245264;28;25392;-71
2022/05/29 09:54:35;;;;;;;7.67;2.47;;;;;;;14.86;60.79;99601.97;4250290;28;21792;-60
2022/05/29 09:57:20;;;;;;;8.47;2.43;;;;;;;14.93;61.86;99594.81;4238829;28;20237;-61
2022/05/29 09:59:49;;;;;;;10.10;2.30;;;;;;;15.13;61.70;99590.44;4241138;28;20266;-64
2022/05/29 10:02:27;;;;;;;5.47;2.10;;;;;;;15.18;60.28;99590.66;4259119;28;21626;-61
2022/05/29 10:04:58;;;;;;;9.70;1.67;;;;;;;15.41;56.55;99597.63;4262736;28;20233;-61
2022/05/29 10:07:37;;;;;;;7.73;2.03;;;;;;;15.55;56.84;99598.53;4256447;28;20914;-64
2022/05/29 10:10:06;;;;;;;7.10;2.10;;;;;;;15.69;56.60;99600.25;4250880;28;20239;-63
2022/05/29 10:12:53;;;;;;;6.03;1.73;;;;;;;15.50;56.60;99604.50;4261507;28;20414;-63
2022/05/29 10:15:25;;;;;;;5.67;1.50;;;;;;;15.15;56.25;99599.09;4279818;28;20237;-62
2022/05/29 10:17:58;;;;;;;6.27;1.93;;;;;;;15.23;57.24;99597.31;4254962;28;20483;-63
2022/05/29 10:20:33;;;;;;;7.77;1.90;;;;;;;15.62;54.72;99616.31;4250149;28;20297;-60
2022/05/29 10:23:07;;;;;;;7.07;1.97;;;;;;;15.79;54.23;99605.28;4242570;28;20364;-62
2022/05/29 10:25:37;;;;;;;12.03;2.73;;;;;;;15.85;55.77;99609.88;4234506;28;20263;-61
2022/05/29 10:28:15;;;;;;;8.73;2.30;;;;;;;15.85;57.44;99615.22;4231188;28;20753;-61
2022/05/29 10:30:49;;;;;;;9.00;2.10;;;;;;;15.50;59.50;99612.53;4243369;28;21374;-59
2022/05/29 10:33:21;;;;;;;8.37;2.03;;;;;;;15.14;60.44;99610.84;4258955;28;21420;-62
2022/05/29 10:35:49;;;;;;;9.43;2.17;;;;;;;14.68;60.81;99608.63;4227608;28;20482;-61
2022/05/29 10:38:18;;;;;;;13.57;2.07;;;;;;;14.59;60.01;99609.75;4246657;28;20219;-61
2022/05/29 10:40:47;;;;;;;8.87;2.10;;;;;;;14.45;60.90;99611.44;4248368;28;23684;-61
2022/05/29 10:43:41;;;;;;;6.30;1.80;;;;;;;14.37;61.60;99608.88;4253049;28;20280;-62
2022/05/29 10:46:12;;;;;;;7.77;1.87;;;;;;;14.26;62.57;99609.41;4236780;28;20772;-62
2022/05/29 10:49:47;;;;;;;13.63;5.10;;;;;;;13.91;66.49;99596.66;4240392;28;20301;-62
2022/05/29 10:52:09;;;;;;;10.43;3.27;;;;;;;13.72;70.27;99597.25;4243973;28;20315;-63
2022/05/29 10:54:53;;;;;;;8.03;2.47;;;;;;;13.41;71.08;99592.91;4244830;28;20226;-61
2022/05/29 10:57:32;;;;;;;14.67;2.37;;;;;;;13.66;70.83;99592.63;4251673;28;21216;-64
2022/05/29 11:00:50;;;;;;;10.57;2.63;;;;;;;13.71;72.48;99585.69;4267513;28;22008;-60
2022/05/29 11:03:38;;;;;;;10.63;2.47;;;;;;;14.08;71.90;99586.56;4219788;28;20302;-60
2022/05/29 11:06:37;;;;;;;14.27;2.70;;;;;;;14.38;70.42;99588.31;4281346;28;20395;-63
2022/05/29 11:09:45;;;;;;;10.30;2.60;;;;;;;14.60;69.33;99581.13;4250250;28;20658;-62
2022/05/29 11:12:53;;;;;;;12.73;3.53;;;;;;;15.28;66.00;99584.13;4213436;28;20234;-62
2022/05/29 11:15:34;;;;;;;19.77;4.27;;;;;;;15.56;64.88;99595.63;4227507;28;20233;-63
2022/05/29 11:18:09;;;;;;;18.53;4.77;;;;;;;15.57;62.71;99593.81;4226156;28;20646;-64
2022/05/29 11:20:51;;;;;;;18.50;5.03;;;;;;;15.36;64.02;99592.03;4266757;28;22137;-63
2022/05/29 11:23:47;;;;;;;9.50;3.23;;;;;;;15.90;60.33;99598.53;4266473;28;21221;-62
2022/05/29 11:26:42;;;;;;;11.17;2.80;;;;;;;15.86;61.37;99600.78;4253372;28;20227;-62
2022/05/29 11:29:22;;;;;;;10.00;2.40;;;;;;;15.66;61.21;99599.81;4273688;28;20243;-62
2022/05/29 11:32:18;;;;;;;6.47;2.13;;;;;;;15.48;60.62;99598.50;4265221;28;23676;-62
2022/05/29 11:35:16;;;;;;;5.73;2.17;;;;;;;15.80;58.41;99601.56;4297522;28;20224;-62
2022/05/29 11:38:05;;;;;;;8.83;2.40;;;;;;;15.98;56.57;99599.16;4274244;28;22965;-60
2022/05/29 11:41:06;;;;;;;6.30;2.07;;;;;;;16.10;55.43;99596.72;4261903;28;20314;-61
2022/05/29 11:43:49;;;;;;;8.73;2.60;;;;;;;16.48;54.06;99592.69;4229549;28;20239;-59
2022/05/29 11:52:15;;;;;;;5.63;1.70;;;;;;;16.53;51.79;99580.31;4262135;28;20239;-60
2022/05/29 11:55:06;;;;;;;6.17;1.40;;;;;;;16.85;47.97;99583.25;4258947;28;20410;-63
2022/05/29 11:57:43;;;;;;;5.90;1.40;;;;;;;17.14;47.02;99582.00;4275205;28;20239;-61
2022/05/29 12:00:35;;;;;;;5.07;1.50;;;;;;;17.10;47.73;99575.38;4241980;28;20385;-61
2022/05/29 12:03:23;;;;;;;4.77;1.43;;;;;;;17.20;50.19;99580.31;4241338;28;20243;-61
2022/05/29 12:05:58;;;;;;;5.07;1.40;;;;;;;16.85;50.63;99578.69;4282118;28;23055;-67
2022/05/29 12:09:08;;;;;;;10.77;2.03;;;;;;;16.93;52.06;99558.00;4258495;28;23660;-63
2022/05/29 12:11:55;;;;;;;7.87;1.70;;;;;;;16.58;51.89;99561.72;4261388;28;20241;-62
2022/05/29 12:14:40;;;;;;;7.90;1.50;;;;;;;16.13;50.23;99557.91;4249892;28;20231;-62
2022/05/29 12:17:21;;;;;;;5.90;1.40;;;;;;;16.29;49.73;99557.53;4258945;28;20265;-60
2022/05/29 12:19:51;;;;;;;8.10;1.97;;;;;;;16.51;51.28;99552.00;4249790;28;20340;-62
2022/05/29 12:22:25;;;;;;;7.43;1.63;;;;;;;16.90;49.98;99558.44;4251262;28;22029;-63
2022/05/29 12:24:52;;;;;;;4.77;1.40;;;;;;;17.34;47.31;99556.94;4263670;28;20604;-64
2022/05/29 12:27:21;;;;;;;7.87;1.70;;;;;;;17.33;47.46;99555.28;4245025;28;20409;-64
2022/05/29 12:29:54;;;;;;;7.83;1.70;;;;;;;17.35;48.38;99554.03;4255901;28;20298;-63
2022/05/29 12:32:23;;;;;;;5.07;1.60;;;;;;;17.35;47.02;99553.19;4236392;28;21007;-62
2022/05/29 12:34:56;;;;;;;4.90;1.37;;;;;;;17.17;47.23;99561.94;4261382;28;20489;-61